sensor_id;sensor_type;location;lat;lon;timestamp;P1;durP1;ratioP1;P2;durP2;ratioP2
11835;SDS011;5977;51.972;7.640;2023-05-07T00:17:08;155.33;;;49.73;;
11835;SDS011;5977;51.972;7.640;2023-05-07T00:37:31;155.73;;;49.70;;
11835;SDS011;5977;51.972;7.640;2023-05-07T00:44:24;155.90;;;50.00;;
11835;SDS011;5977;51.972;7.640;2023-05-07T00:55:51;155.60;;;49.67;;
11835;SDS011;5977;51.972;7.640;2023-05-07T01:02:45;155.60;;;49.87;;
11835;SDS011;5977;51.972;7.640;2023-05-07T01:09:27;155.40;;;49.53;;
11835;SDS011;5977;51.972;7.640;2023-05-07T01:16:22;155.67;;;49.87;;
11835;SDS011;5977;51.972;7.640;2023-05-07T01:23:04;154.73;;;49.27;;
11835;SDS011;5977;51.972;7.640;2023-05-07T01:29:59;155.70;;;49.90;;
11835;SDS011;5977;51.972;7.640;2023-05-07T01:36:55;155.13;;;49.57;;
11835;SDS011;5977;51.972;7.640;2023-05-07T01:48:15;155.40;;;49.77;;
11835;SDS011;5977;51.972;7.640;2023-05-07T02:08:14;155.00;;;49.50;;
11835;SDS011;5977;51.972;7.640;2023-05-07T02:19:26;155.10;;;49.43;;
11835;SDS011;5977;51.972;7.640;2023-05-07T02:33:24;155.47;;;49.63;;
11835;SDS011;5977;51.972;7.640;2023-05-07T02:49:02;154.50;;;49.30;;
11835;SDS011;5977;51.972;7.640;2023-05-07T03:13:27;154.57;;;49.30;;
11835;SDS011;5977;51.972;7.640;2023-05-07T03:20:15;153.87;;;49.10;;
11835;SDS011;5977;51.972;7.640;2023-05-07T03:27:02;154.13;;;49.20;;
11835;SDS011;5977;51.972;7.640;2023-05-07T03:47:16;154.73;;;49.43;;
11835;SDS011;5977;51.972;7.640;2023-05-07T03:54:05;153.83;;;49.20;;
11835;SDS011;5977;51.972;7.640;2023-05-07T04:10:13;152.93;;;48.77;;
11835;SDS011;5977;51.972;7.640;2023-05-07T04:17:43;153.80;;;49.27;;
11835;SDS011;5977;51.972;7.640;2023-05-07T04:41:50;154.70;;;49.33;;
11835;SDS011;5977;51.972;7.640;2023-05-07T04:57:33;154.10;;;49.20;;
11835;SDS011;5977;51.972;7.640;2023-05-07T05:14:58;153.20;;;49.13;;
11835;SDS011;5977;51.972;7.640;2023-05-07T05:17:27;154.37;;;49.50;;
11835;SDS011;5977;51.972;7.640;2023-05-07T05:19:55;153.83;;;49.50;;
11835;SDS011;5977;51.972;7.640;2023-05-07T05:22:24;154.43;;;49.60;;
11835;SDS011;5977;51.972;7.640;2023-05-07T05:24:52;154.20;;;49.37;;
11835;SDS011;5977;51.972;7.640;2023-05-07T05:27:20;154.53;;;49.60;;
11835;SDS011;5977;51.972;7.640;2023-05-07T05:29:49;154.30;;;49.57;;
11835;SDS011;5977;51.972;7.640;2023-05-07T05:32:18;154.27;;;49.60;;
11835;SDS011;5977;51.972;7.640;2023-05-07T05:34:47;154.87;;;49.77;;
11835;SDS011;5977;51.972;7.640;2023-05-07T05:37:15;154.83;;;49.83;;
11835;SDS011;5977;51.972;7.640;2023-05-07T05:39:44;154.53;;;49.60;;
11835;SDS011;5977;51.972;7.640;2023-05-07T05:42:12;154.53;;;49.70;;
11835;SDS011;5977;51.972;7.640;2023-05-07T05:44:40;154.00;;;49.50;;
11835;SDS011;5977;51.972;7.640;2023-05-07T05:47:08;154.13;;;49.53;;
11835;SDS011;5977;51.972;7.640;2023-05-07T05:49:38;154.33;;;49.67;;
11835;SDS011;5977;51.972;7.640;2023-05-07T05:52:07;154.80;;;49.73;;
11835;SDS011;5977;51.972;7.640;2023-05-07T05:54:36;154.23;;;49.70;;
11835;SDS011;5977;51.972;7.640;2023-05-07T05:57:04;154.40;;;49.77;;
11835;SDS011;5977;51.972;7.640;2023-05-07T05:59:33;155.47;;;50.13;;
11835;SDS011;5977;51.972;7.640;2023-05-07T06:02:01;155.13;;;49.97;;
11835;SDS011;5977;51.972;7.640;2023-05-07T06:04:29;155.23;;;50.00;;
11835;SDS011;5977;51.972;7.640;2023-05-07T06:06:58;154.60;;;49.87;;
11835;SDS011;5977;51.972;7.640;2023-05-07T06:09:26;154.70;;;49.93;;
11835;SDS011;5977;51.972;7.640;2023-05-07T06:11:54;154.97;;;50.00;;
11835;SDS011;5977;51.972;7.640;2023-05-07T06:14:26;155.10;;;49.97;;
11835;SDS011;5977;51.972;7.640;2023-05-07T06:16:54;155.30;;;50.13;;
11835;SDS011;5977;51.972;7.640;2023-05-07T06:19:22;154.20;;;49.80;;
11835;SDS011;5977;51.972;7.640;2023-05-07T06:21:53;153.70;;;49.40;;
11835;SDS011;5977;51.972;7.640;2023-05-07T06:24:24;154.03;;;49.47;;
11835;SDS011;5977;51.972;7.640;2023-05-07T06:26:52;154.17;;;49.77;;
11835;SDS011;5977;51.972;7.640;2023-05-07T06:29:20;154.43;;;49.83;;
11835;SDS011;5977;51.972;7.640;2023-05-07T06:31:48;154.07;;;49.77;;
11835;SDS011;5977;51.972;7.640;2023-05-07T06:34:16;153.90;;;49.47;;
11835;SDS011;5977;51.972;7.640;2023-05-07T06:36:44;153.67;;;49.63;;
11835;SDS011;5977;51.972;7.640;2023-05-07T06:39:34;153.93;;;49.70;;
11835;SDS011;5977;51.972;7.640;2023-05-07T06:42:02;153.57;;;49.47;;
11835;SDS011;5977;51.972;7.640;2023-05-07T06:44:31;154.33;;;49.97;;
11835;SDS011;5977;51.972;7.640;2023-05-07T06:47:09;153.77;;;49.77;;
11835;SDS011;5977;51.972;7.640;2023-05-07T06:49:40;154.37;;;49.80;;
11835;SDS011;5977;51.972;7.640;2023-05-07T06:52:08;154.07;;;49.73;;
11835;SDS011;5977;51.972;7.640;2023-05-07T06:54:37;154.93;;;50.17;;
11835;SDS011;5977;51.972;7.640;2023-05-07T06:57:06;154.60;;;49.97;;
11835;SDS011;5977;51.972;7.640;2023-05-07T06:59:34;154.67;;;50.23;;
11835;SDS011;5977;51.972;7.640;2023-05-07T07:02:02;154.67;;;50.17;;
11835;SDS011;5977;51.972;7.640;2023-05-07T07:04:30;154.57;;;50.13;;
11835;SDS011;5977;51.972;7.640;2023-05-07T07:07:03;154.57;;;50.03;;
11835;SDS011;5977;51.972;7.640;2023-05-07T07:09:31;154.87;;;50.10;;
11835;SDS011;5977;51.972;7.640;2023-05-07T07:12:01;154.63;;;50.23;;
11835;SDS011;5977;51.972;7.640;2023-05-07T07:14:30;154.80;;;50.07;;
11835;SDS011;5977;51.972;7.640;2023-05-07T07:16:58;154.90;;;50.40;;
11835;SDS011;5977;51.972;7.640;2023-05-07T07:19:26;154.97;;;50.27;;
11835;SDS011;5977;51.972;7.640;2023-05-07T07:21:55;155.20;;;50.37;;
11835;SDS011;5977;51.972;7.640;2023-05-07T07:24:23;154.57;;;50.27;;
11835;SDS011;5977;51.972;7.640;2023-05-07T07:26:55;154.90;;;50.40;;
11835;SDS011;5977;51.972;7.640;2023-05-07T07:29:26;154.77;;;50.27;;
11835;SDS011;5977;51.972;7.640;2023-05-07T07:31:54;154.53;;;50.27;;
11835;SDS011;5977;51.972;7.640;2023-05-07T07:34:22;155.43;;;50.57;;
11835;SDS011;5977;51.972;7.640;2023-05-07T07:36:50;155.03;;;50.37;;
11835;SDS011;5977;51.972;7.640;2023-05-07T07:39:18;155.23;;;50.47;;
11835;SDS011;5977;51.972;7.640;2023-05-07T07:41:49;155.33;;;50.67;;
11835;SDS011;5977;51.972;7.640;2023-05-07T07:44:18;155.63;;;50.67;;
11835;SDS011;5977;51.972;7.640;2023-05-07T07:46:52;155.93;;;50.77;;
11835;SDS011;5977;51.972;7.640;2023-05-07T07:49:22;155.10;;;50.63;;
11835;SDS011;5977;51.972;7.640;2023-05-07T07:51:50;155.70;;;50.83;;
11835;SDS011;5977;51.972;7.640;2023-05-07T07:54:18;155.07;;;50.53;;
11835;SDS011;5977;51.972;7.640;2023-05-07T07:56:46;155.97;;;51.00;;
11835;SDS011;5977;51.972;7.640;2023-05-07T07:59:14;155.60;;;50.67;;
11835;SDS011;5977;51.972;7.640;2023-05-07T08:01:45;156.13;;;51.07;;
11835;SDS011;5977;51.972;7.640;2023-05-07T08:04:20;155.93;;;50.97;;
11835;SDS011;5977;51.972;7.640;2023-05-07T08:06:49;155.87;;;50.97;;
11835;SDS011;5977;51.972;7.640;2023-05-07T08:09:18;155.57;;;50.60;;
11835;SDS011;5977;51.972;7.640;2023-05-07T08:11:47;156.20;;;50.90;;
11835;SDS011;5977;51.972;7.640;2023-05-07T08:14:15;155.87;;;50.87;;
11835;SDS011;5977;51.972;7.640;2023-05-07T08:16:45;155.80;;;50.90;;
11835;SDS011;5977;51.972;7.640;2023-05-07T08:19:13;156.03;;;50.90;;
11835;SDS011;5977;51.972;7.640;2023-05-07T08:21:43;156.37;;;51.23;;
11835;SDS011;5977;51.972;7.640;2023-05-07T08:24:14;155.90;;;51.13;;
11835;SDS011;5977;51.972;7.640;2023-05-07T08:26:42;156.43;;;51.30;;
11835;SDS011;5977;51.972;7.640;2023-05-07T08:29:10;156.07;;;50.97;;
11835;SDS011;5977;51.972;7.640;2023-05-07T08:31:38;155.50;;;50.80;;
11835;SDS011;5977;51.972;7.640;2023-05-07T08:34:06;156.13;;;51.20;;
11835;SDS011;5977;51.972;7.640;2023-05-07T08:36:39;155.63;;;50.70;;
11835;SDS011;5977;51.972;7.640;2023-05-07T08:39:10;155.60;;;50.73;;
11835;SDS011;5977;51.972;7.640;2023-05-07T08:41:38;156.40;;;51.03;;
11835;SDS011;5977;51.972;7.640;2023-05-07T08:44:06;155.53;;;50.73;;
11835;SDS011;5977;51.972;7.640;2023-05-07T08:46:41;156.03;;;50.70;;
11835;SDS011;5977;51.972;7.640;2023-05-07T08:49:12;156.23;;;50.97;;
11835;SDS011;5977;51.972;7.640;2023-05-07T08:51:44;155.83;;;50.77;;
11835;SDS011;5977;51.972;7.640;2023-05-07T08:54:16;156.37;;;51.03;;
11835;SDS011;5977;51.972;7.640;2023-05-07T08:56:46;156.03;;;50.90;;
11835;SDS011;5977;51.972;7.640;2023-05-07T08:59:14;156.70;;;51.37;;
11835;SDS011;5977;51.972;7.640;2023-05-07T09:01:43;156.50;;;51.13;;
11835;SDS011;5977;51.972;7.640;2023-05-07T09:04:12;156.90;;;51.27;;
11835;SDS011;5977;51.972;7.640;2023-05-07T09:06:41;156.63;;;51.30;;
11835;SDS011;5977;51.972;7.640;2023-05-07T09:09:13;157.23;;;51.43;;
11835;SDS011;5977;51.972;7.640;2023-05-07T09:11:46;156.70;;;51.33;;
11835;SDS011;5977;51.972;7.640;2023-05-07T09:14:18;156.33;;;51.00;;
11835;SDS011;5977;51.972;7.640;2023-05-07T09:16:51;156.33;;;51.07;;
11835;SDS011;5977;51.972;7.640;2023-05-07T09:19:22;156.53;;;51.07;;
11835;SDS011;5977;51.972;7.640;2023-05-07T09:21:57;156.20;;;51.10;;
11835;SDS011;5977;51.972;7.640;2023-05-07T09:24:25;157.47;;;51.57;;
11835;SDS011;5977;51.972;7.640;2023-05-07T09:26:56;157.37;;;51.37;;
11835;SDS011;5977;51.972;7.640;2023-05-07T09:29:25;156.83;;;51.33;;
11835;SDS011;5977;51.972;7.640;2023-05-07T09:31:54;157.60;;;51.83;;
11835;SDS011;5977;51.972;7.640;2023-05-07T09:34:23;157.77;;;51.87;;
11835;SDS011;5977;51.972;7.640;2023-05-07T09:36:51;158.23;;;52.20;;
11835;SDS011;5977;51.972;7.640;2023-05-07T09:39:20;157.80;;;52.10;;
11835;SDS011;5977;51.972;7.640;2023-05-07T09:41:49;157.93;;;52.10;;
11835;SDS011;5977;51.972;7.640;2023-05-07T09:44:25;158.57;;;52.30;;
11835;SDS011;5977;51.972;7.640;2023-05-07T09:46:53;159.00;;;52.43;;
11835;SDS011;5977;51.972;7.640;2023-05-07T09:49:29;158.13;;;52.33;;
11835;SDS011;5977;51.972;7.640;2023-05-07T09:52:04;158.20;;;52.40;;
11835;SDS011;5977;51.972;7.640;2023-05-07T09:54:37;159.60;;;52.93;;
11835;SDS011;5977;51.972;7.640;2023-05-07T09:57:06;159.10;;;52.80;;
11835;SDS011;5977;51.972;7.640;2023-05-07T09:59:38;158.90;;;52.57;;
11835;SDS011;5977;51.972;7.640;2023-05-07T10:02:13;158.47;;;52.20;;
11835;SDS011;5977;51.972;7.640;2023-05-07T10:04:48;158.77;;;52.33;;
11835;SDS011;5977;51.972;7.640;2023-05-07T10:07:21;158.83;;;52.30;;
11835;SDS011;5977;51.972;7.640;2023-05-07T10:09:53;157.83;;;52.10;;
11835;SDS011;5977;51.972;7.640;2023-05-07T10:12:33;158.03;;;52.17;;
11835;SDS011;5977;51.972;7.640;2023-05-07T10:15:11;158.50;;;52.17;;
11835;SDS011;5977;51.972;7.640;2023-05-07T10:17:44;158.73;;;52.43;;
11835;SDS011;5977;51.972;7.640;2023-05-07T10:20:12;158.20;;;52.20;;
11835;SDS011;5977;51.972;7.640;2023-05-07T10:22:43;159.13;;;52.60;;
11835;SDS011;5977;51.972;7.640;2023-05-07T10:25:18;159.07;;;52.47;;
11835;SDS011;5977;51.972;7.640;2023-05-07T10:27:50;158.77;;;52.63;;
11835;SDS011;5977;51.972;7.640;2023-05-07T10:30:25;158.57;;;52.30;;
11835;SDS011;5977;51.972;7.640;2023-05-07T10:33:04;158.80;;;52.40;;
11835;SDS011;5977;51.972;7.640;2023-05-07T10:35:40;158.07;;;52.33;;
11835;SDS011;5977;51.972;7.640;2023-05-07T10:38:11;158.90;;;52.40;;
11835;SDS011;5977;51.972;7.640;2023-05-07T10:40:41;158.93;;;52.57;;
11835;SDS011;5977;51.972;7.640;2023-05-07T10:43:09;159.13;;;52.77;;
11835;SDS011;5977;51.972;7.640;2023-05-07T10:45:43;158.57;;;52.63;;
11835;SDS011;5977;51.972;7.640;2023-05-07T10:48:32;158.90;;;52.63;;
11835;SDS011;5977;51.972;7.640;2023-05-07T10:51:19;158.40;;;52.60;;
11835;SDS011;5977;51.972;7.640;2023-05-07T10:54:18;158.30;;;52.37;;
11835;SDS011;5977;51.972;7.640;2023-05-07T10:56:59;158.73;;;52.77;;
11835;SDS011;5977;51.972;7.640;2023-05-07T11:03:16;158.43;;;52.40;;
11835;SDS011;5977;51.972;7.640;2023-05-07T11:08:54;158.77;;;52.77;;
11835;SDS011;5977;51.972;7.640;2023-05-07T11:14:44;158.33;;;52.83;;
11835;SDS011;5977;51.972;7.640;2023-05-07T11:17:17;158.23;;;52.73;;
11835;SDS011;5977;51.972;7.640;2023-05-07T11:19:51;158.00;;;52.63;;
11835;SDS011;5977;51.972;7.640;2023-05-07T11:22:38;158.57;;;52.47;;
11835;SDS011;5977;51.972;7.640;2023-05-07T11:25:17;158.77;;;52.70;;
11835;SDS011;5977;51.972;7.640;2023-05-07T11:27:51;158.90;;;52.97;;
11835;SDS011;5977;51.972;7.640;2023-05-07T11:30:21;159.10;;;53.03;;
11835;SDS011;5977;51.972;7.640;2023-05-07T11:32:49;158.50;;;52.80;;
11835;SDS011;5977;51.972;7.640;2023-05-07T11:35:17;158.30;;;52.83;;
11835;SDS011;5977;51.972;7.640;2023-05-07T11:37:50;158.13;;;52.73;;
11835;SDS011;5977;51.972;7.640;2023-05-07T11:40:27;158.57;;;52.87;;
11835;SDS011;5977;51.972;7.640;2023-05-07T11:42:54;159.20;;;53.23;;
11835;SDS011;5977;51.972;7.640;2023-05-07T11:45:24;158.63;;;52.97;;
11835;SDS011;5977;51.972;7.640;2023-05-07T11:47:52;158.97;;;52.90;;
11835;SDS011;5977;51.972;7.640;2023-05-07T11:50:20;158.50;;;52.80;;
11835;SDS011;5977;51.972;7.640;2023-05-07T11:52:50;159.00;;;53.17;;
11835;SDS011;5977;51.972;7.640;2023-05-07T11:55:18;159.03;;;52.77;;
11835;SDS011;5977;51.972;7.640;2023-05-07T11:57:48;158.73;;;52.97;;
11835;SDS011;5977;51.972;7.640;2023-05-07T12:00:16;159.07;;;53.23;;
11835;SDS011;5977;51.972;7.640;2023-05-07T12:02:46;159.27;;;53.13;;
11835;SDS011;5977;51.972;7.640;2023-05-07T12:05:14;159.03;;;53.03;;
11835;SDS011;5977;51.972;7.640;2023-05-07T12:07:41;158.77;;;53.10;;
11835;SDS011;5977;51.972;7.640;2023-05-07T12:10:10;159.03;;;53.20;;
11835;SDS011;5977;51.972;7.640;2023-05-07T12:12:39;158.77;;;52.97;;
11835;SDS011;5977;51.972;7.640;2023-05-07T12:15:08;158.77;;;52.93;;
11835;SDS011;5977;51.972;7.640;2023-05-07T12:17:37;158.70;;;52.93;;
11835;SDS011;5977;51.972;7.640;2023-05-07T12:20:07;158.87;;;53.00;;
11835;SDS011;5977;51.972;7.640;2023-05-07T12:22:36;158.87;;;53.10;;
11835;SDS011;5977;51.972;7.640;2023-05-07T12:25:04;159.67;;;53.47;;
11835;SDS011;5977;51.972;7.640;2023-05-07T12:27:36;159.47;;;53.37;;
11835;SDS011;5977;51.972;7.640;2023-05-07T12:30:04;159.30;;;53.30;;
11835;SDS011;5977;51.972;7.640;2023-05-07T12:32:33;159.77;;;53.47;;
11835;SDS011;5977;51.972;7.640;2023-05-07T12:35:03;159.63;;;53.37;;
11835;SDS011;5977;51.972;7.640;2023-05-07T12:37:35;159.23;;;53.33;;
11835;SDS011;5977;51.972;7.640;2023-05-07T12:40:04;159.67;;;53.47;;
11835;SDS011;5977;51.972;7.640;2023-05-07T12:42:35;159.37;;;53.40;;
11835;SDS011;5977;51.972;7.640;2023-05-07T12:45:07;159.30;;;53.30;;
11835;SDS011;5977;51.972;7.640;2023-05-07T12:47:36;159.57;;;53.27;;
11835;SDS011;5977;51.972;7.640;2023-05-07T12:50:06;158.60;;;52.90;;
11835;SDS011;5977;51.972;7.640;2023-05-07T12:52:35;158.47;;;53.10;;
11835;SDS011;5977;51.972;7.640;2023-05-07T12:55:06;158.70;;;53.10;;
11835;SDS011;5977;51.972;7.640;2023-05-07T12:57:39;159.10;;;53.23;;
11835;SDS011;5977;51.972;7.640;2023-05-07T13:00:07;159.23;;;53.07;;
11835;SDS011;5977;51.972;7.640;2023-05-07T13:02:37;159.60;;;53.37;;
11835;SDS011;5977;51.972;7.640;2023-05-07T13:05:08;158.83;;;53.13;;
11835;SDS011;5977;51.972;7.640;2023-05-07T13:07:36;159.23;;;53.43;;
11835;SDS011;5977;51.972;7.640;2023-05-07T13:10:05;159.30;;;53.30;;
11835;SDS011;5977;51.972;7.640;2023-05-07T13:12:34;159.67;;;53.37;;
11835;SDS011;5977;51.972;7.640;2023-05-07T13:15:02;159.13;;;53.27;;
11835;SDS011;5977;51.972;7.640;2023-05-07T13:17:30;158.97;;;53.23;;
11835;SDS011;5977;51.972;7.640;2023-05-07T13:19:58;158.50;;;52.93;;
11835;SDS011;5977;51.972;7.640;2023-05-07T13:22:27;158.77;;;52.93;;
11835;SDS011;5977;51.972;7.640;2023-05-07T13:24:55;159.20;;;53.47;;
11835;SDS011;5977;51.972;7.640;2023-05-07T13:27:23;159.30;;;53.30;;
11835;SDS011;5977;51.972;7.640;2023-05-07T13:29:52;159.10;;;53.37;;
11835;SDS011;5977;51.972;7.640;2023-05-07T13:32:20;159.90;;;53.60;;
11835;SDS011;5977;51.972;7.640;2023-05-07T13:34:47;159.73;;;53.80;;
11835;SDS011;5977;51.972;7.640;2023-05-07T13:37:15;159.27;;;53.67;;
11835;SDS011;5977;51.972;7.640;2023-05-07T13:39:45;160.07;;;53.63;;
11835;SDS011;5977;51.972;7.640;2023-05-07T13:42:13;159.50;;;53.53;;
11835;SDS011;5977;51.972;7.640;2023-05-07T13:44:40;159.23;;;53.50;;
11835;SDS011;5977;51.972;7.640;2023-05-07T13:47:10;159.13;;;53.63;;
11835;SDS011;5977;51.972;7.640;2023-05-07T13:49:38;159.27;;;53.57;;
11835;SDS011;5977;51.972;7.640;2023-05-07T13:52:06;160.00;;;53.50;;
11835;SDS011;5977;51.972;7.640;2023-05-07T13:54:33;159.70;;;53.67;;
11835;SDS011;5977;51.972;7.640;2023-05-07T13:57:03;159.40;;;53.53;;
11835;SDS011;5977;51.972;7.640;2023-05-07T13:59:31;159.83;;;53.50;;
11835;SDS011;5977;51.972;7.640;2023-05-07T14:01:59;159.60;;;53.67;;
11835;SDS011;5977;51.972;7.640;2023-05-07T14:04:27;159.40;;;53.23;;
11835;SDS011;5977;51.972;7.640;2023-05-07T14:06:55;159.80;;;53.47;;
11835;SDS011;5977;51.972;7.640;2023-05-07T14:09:23;159.70;;;53.60;;
11835;SDS011;5977;51.972;7.640;2023-05-07T14:11:51;159.43;;;53.43;;
11835;SDS011;5977;51.972;7.640;2023-05-07T14:14:20;159.67;;;53.47;;
11835;SDS011;5977;51.972;7.640;2023-05-07T14:16:48;160.47;;;53.60;;
11835;SDS011;5977;51.972;7.640;2023-05-07T14:19:16;159.60;;;53.10;;
11835;SDS011;5977;51.972;7.640;2023-05-07T14:21:44;159.27;;;53.20;;
11835;SDS011;5977;51.972;7.640;2023-05-07T14:24:12;159.57;;;53.10;;
11835;SDS011;5977;51.972;7.640;2023-05-07T14:26:56;160.03;;;53.70;;
11835;SDS011;5977;51.972;7.640;2023-05-07T14:29:25;159.73;;;53.57;;
11835;SDS011;5977;51.972;7.640;2023-05-07T14:31:53;159.77;;;53.40;;
11835;SDS011;5977;51.972;7.640;2023-05-07T14:34:21;159.23;;;53.10;;
11835;SDS011;5977;51.972;7.640;2023-05-07T14:36:49;159.87;;;53.57;;
11835;SDS011;5977;51.972;7.640;2023-05-07T14:39:18;159.63;;;53.20;;
11835;SDS011;5977;51.972;7.640;2023-05-07T14:41:45;159.90;;;53.37;;
11835;SDS011;5977;51.972;7.640;2023-05-07T14:44:13;159.77;;;53.57;;
11835;SDS011;5977;51.972;7.640;2023-05-07T14:46:42;159.97;;;53.30;;
11835;SDS011;5977;51.972;7.640;2023-05-07T14:49:10;159.77;;;53.43;;
11835;SDS011;5977;51.972;7.640;2023-05-07T14:51:43;160.03;;;53.53;;
11835;SDS011;5977;51.972;7.640;2023-05-07T14:54:11;160.00;;;53.43;;
11835;SDS011;5977;51.972;7.640;2023-05-07T14:56:39;159.97;;;53.50;;
11835;SDS011;5977;51.972;7.640;2023-05-07T14:59:08;159.80;;;53.43;;
11835;SDS011;5977;51.972;7.640;2023-05-07T15:01:37;159.33;;;53.07;;
11835;SDS011;5977;51.972;7.640;2023-05-07T15:04:08;159.77;;;53.20;;
11835;SDS011;5977;51.972;7.640;2023-05-07T15:06:35;160.60;;;53.93;;
11835;SDS011;5977;51.972;7.640;2023-05-07T15:09:03;159.77;;;53.40;;
11835;SDS011;5977;51.972;7.640;2023-05-07T15:11:31;159.40;;;53.47;;
11835;SDS011;5977;51.972;7.640;2023-05-07T15:14:02;159.53;;;53.20;;
11835;SDS011;5977;51.972;7.640;2023-05-07T15:16:30;160.00;;;53.40;;
11835;SDS011;5977;51.972;7.640;2023-05-07T15:18:58;159.17;;;53.30;;
11835;SDS011;5977;51.972;7.640;2023-05-07T15:21:28;159.20;;;53.20;;
11835;SDS011;5977;51.972;7.640;2023-05-07T15:23:57;159.53;;;53.33;;
11835;SDS011;5977;51.972;7.640;2023-05-07T15:26:24;159.83;;;53.43;;
11835;SDS011;5977;51.972;7.640;2023-05-07T15:28:52;159.40;;;53.13;;
11835;SDS011;5977;51.972;7.640;2023-05-07T15:31:22;159.20;;;53.17;;
11835;SDS011;5977;51.972;7.640;2023-05-07T15:33:51;158.97;;;53.17;;
11835;SDS011;5977;51.972;7.640;2023-05-07T15:36:19;159.47;;;53.30;;
11835;SDS011;5977;51.972;7.640;2023-05-07T15:38:48;159.93;;;53.43;;
11835;SDS011;5977;51.972;7.640;2023-05-07T15:41:16;158.90;;;53.20;;
11835;SDS011;5977;51.972;7.640;2023-05-07T15:43:46;159.43;;;53.10;;
11835;SDS011;5977;51.972;7.640;2023-05-07T15:46:17;158.47;;;53.07;;
11835;SDS011;5977;51.972;7.640;2023-05-07T15:48:46;159.03;;;53.13;;
11835;SDS011;5977;51.972;7.640;2023-05-07T15:51:14;159.53;;;53.43;;
11835;SDS011;5977;51.972;7.640;2023-05-07T15:53:42;158.93;;;53.10;;
11835;SDS011;5977;51.972;7.640;2023-05-07T15:56:12;159.63;;;53.37;;
11835;SDS011;5977;51.972;7.640;2023-05-07T15:58:40;159.10;;;53.37;;
11835;SDS011;5977;51.972;7.640;2023-05-07T16:01:08;159.27;;;53.30;;
11835;SDS011;5977;51.972;7.640;2023-05-07T16:03:36;159.00;;;52.97;;
11835;SDS011;5977;51.972;7.640;2023-05-07T16:06:05;158.23;;;52.73;;
11835;SDS011;5977;51.972;7.640;2023-05-07T16:08:33;158.80;;;52.97;;
11835;SDS011;5977;51.972;7.640;2023-05-07T16:11:01;158.53;;;52.77;;
11835;SDS011;5977;51.972;7.640;2023-05-07T16:13:30;159.10;;;53.10;;
11835;SDS011;5977;51.972;7.640;2023-05-07T16:15:58;159.40;;;53.27;;
11835;SDS011;5977;51.972;7.640;2023-05-07T16:18:26;159.40;;;53.07;;
11835;SDS011;5977;51.972;7.640;2023-05-07T16:20:54;158.27;;;52.20;;
11835;SDS011;5977;51.972;7.640;2023-05-07T16:23:23;158.47;;;52.57;;
11835;SDS011;5977;51.972;7.640;2023-05-07T16:25:51;158.37;;;52.67;;
11835;SDS011;5977;51.972;7.640;2023-05-07T16:28:19;158.80;;;52.87;;
11835;SDS011;5977;51.972;7.640;2023-05-07T16:30:50;158.60;;;52.50;;
11835;SDS011;5977;51.972;7.640;2023-05-07T16:33:18;157.77;;;51.80;;
11835;SDS011;5977;51.972;7.640;2023-05-07T16:35:50;158.60;;;52.53;;
11835;SDS011;5977;51.972;7.640;2023-05-07T16:38:18;157.97;;;52.23;;
11835;SDS011;5977;51.972;7.640;2023-05-07T16:40:46;158.17;;;52.30;;
11835;SDS011;5977;51.972;7.640;2023-05-07T16:43:14;158.07;;;52.00;;
11835;SDS011;5977;51.972;7.640;2023-05-07T16:45:41;158.07;;;52.07;;
11835;SDS011;5977;51.972;7.640;2023-05-07T16:48:11;158.20;;;51.83;;
11835;SDS011;5977;51.972;7.640;2023-05-07T16:50:39;158.17;;;52.20;;
11835;SDS011;5977;51.972;7.640;2023-05-07T16:53:09;158.10;;;52.00;;
11835;SDS011;5977;51.972;7.640;2023-05-07T16:55:39;157.03;;;51.23;;
11835;SDS011;5977;51.972;7.640;2023-05-07T16:58:07;157.67;;;51.83;;
11835;SDS011;5977;51.972;7.640;2023-05-07T17:00:36;158.63;;;52.37;;
11835;SDS011;5977;51.972;7.640;2023-05-07T17:03:17;157.80;;;51.80;;
11835;SDS011;5977;51.972;7.640;2023-05-07T17:05:51;158.37;;;51.97;;
11835;SDS011;5977;51.972;7.640;2023-05-07T17:08:19;158.13;;;52.30;;
11835;SDS011;5977;51.972;7.640;2023-05-07T17:10:50;158.40;;;52.30;;
11835;SDS011;5977;51.972;7.640;2023-05-07T17:13:25;158.07;;;52.23;;
11835;SDS011;5977;51.972;7.640;2023-05-07T17:15:53;159.13;;;52.60;;
11835;SDS011;5977;51.972;7.640;2023-05-07T17:18:23;158.47;;;52.23;;
11835;SDS011;5977;51.972;7.640;2023-05-07T17:20:50;158.53;;;52.23;;
11835;SDS011;5977;51.972;7.640;2023-05-07T17:23:20;157.70;;;52.00;;
11835;SDS011;5977;51.972;7.640;2023-05-07T17:25:48;158.83;;;52.47;;
11835;SDS011;5977;51.972;7.640;2023-05-07T17:28:16;157.87;;;51.77;;
11835;SDS011;5977;51.972;7.640;2023-05-07T17:30:43;157.80;;;51.93;;
11835;SDS011;5977;51.972;7.640;2023-05-07T17:33:13;158.10;;;51.80;;
11835;SDS011;5977;51.972;7.640;2023-05-07T17:35:48;158.07;;;52.07;;
11835;SDS011;5977;51.972;7.640;2023-05-07T17:38:18;158.20;;;52.03;;
11835;SDS011;5977;51.972;7.640;2023-05-07T17:40:46;158.47;;;52.37;;
11835;SDS011;5977;51.972;7.640;2023-05-07T17:43:14;157.57;;;51.70;;
11835;SDS011;5977;51.972;7.640;2023-05-07T17:45:43;157.63;;;51.57;;
11835;SDS011;5977;51.972;7.640;2023-05-07T17:48:11;157.90;;;51.90;;
11835;SDS011;5977;51.972;7.640;2023-05-07T17:50:40;157.60;;;51.77;;
11835;SDS011;5977;51.972;7.640;2023-05-07T17:53:09;158.20;;;51.80;;
11835;SDS011;5977;51.972;7.640;2023-05-07T17:55:39;157.33;;;51.60;;
11835;SDS011;5977;51.972;7.640;2023-05-07T17:58:08;157.97;;;51.87;;
11835;SDS011;5977;51.972;7.640;2023-05-07T18:00:37;157.70;;;51.90;;
11835;SDS011;5977;51.972;7.640;2023-05-07T18:03:05;157.90;;;51.67;;
11835;SDS011;5977;51.972;7.640;2023-05-07T18:05:35;157.17;;;51.50;;
11835;SDS011;5977;51.972;7.640;2023-05-07T18:08:05;157.40;;;51.57;;
11835;SDS011;5977;51.972;7.640;2023-05-07T18:10:34;158.20;;;51.80;;
11835;SDS011;5977;51.972;7.640;2023-05-07T18:13:02;157.50;;;51.60;;
11835;SDS011;5977;51.972;7.640;2023-05-07T18:15:30;157.63;;;51.37;;
11835;SDS011;5977;51.972;7.640;2023-05-07T18:17:58;157.27;;;51.77;;
11835;SDS011;5977;51.972;7.640;2023-05-07T18:20:26;157.20;;;51.30;;
11835;SDS011;5977;51.972;7.640;2023-05-07T18:22:54;157.37;;;51.47;;
11835;SDS011;5977;51.972;7.640;2023-05-07T18:25:22;157.87;;;51.40;;
11835;SDS011;5977;51.972;7.640;2023-05-07T18:27:51;157.93;;;51.50;;
11835;SDS011;5977;51.972;7.640;2023-05-07T18:30:19;158.33;;;51.77;;
11835;SDS011;5977;51.972;7.640;2023-05-07T18:32:48;157.60;;;51.27;;
11835;SDS011;5977;51.972;7.640;2023-05-07T18:35:16;158.03;;;51.67;;
11835;SDS011;5977;51.972;7.640;2023-05-07T18:37:44;157.33;;;51.33;;
11835;SDS011;5977;51.972;7.640;2023-05-07T18:40:12;157.93;;;51.70;;
11835;SDS011;5977;51.972;7.640;2023-05-07T18:42:40;157.77;;;51.67;;
11835;SDS011;5977;51.972;7.640;2023-05-07T18:45:10;157.53;;;51.50;;
11835;SDS011;5977;51.972;7.640;2023-05-07T18:47:38;158.40;;;51.83;;
11835;SDS011;5977;51.972;7.640;2023-05-07T18:50:06;157.77;;;51.60;;
11835;SDS011;5977;51.972;7.640;2023-05-07T18:52:35;157.80;;;51.27;;
11835;SDS011;5977;51.972;7.640;2023-05-07T18:55:03;157.93;;;51.50;;
11835;SDS011;5977;51.972;7.640;2023-05-07T18:57:32;157.10;;;51.33;;
11835;SDS011;5977;51.972;7.640;2023-05-07T19:00:00;157.80;;;51.13;;